createdAt,value
2019-02-24T00:00:44.328Z,1.50
2019-02-24T00:03:13.441Z,1.40
2019-02-24T00:05:42.313Z,1.30
2019-02-24T00:08:11.088Z,1.20
2019-02-24T00:10:40.117Z,1.30
2019-02-24T00:13:09.152Z,1.30
2019-02-24T00:15:37.954Z,1.30
2019-02-24T00:18:07.223Z,1.30
2019-02-24T00:20:36.717Z,1.30
2019-02-24T00:23:05.813Z,1.40
2019-02-24T00:25:34.849Z,1.40
2019-02-24T00:28:07.128Z,1.60
2019-02-24T00:30:34.109Z,1.60
2019-02-24T00:33:02.889Z,1.60
2019-02-24T00:35:32.048Z,1.60
2019-02-24T00:38:00.839Z,1.50
2019-02-24T00:40:29.639Z,1.40
2019-02-24T00:42:58.417Z,1.30
2019-02-24T00:45:27.188Z,1.20
2019-02-24T00:47:55.945Z,1.10
2019-02-24T00:50:24.967Z,1.10
2019-02-24T00:52:54.104Z,1.00
2019-02-24T00:55:22.933Z,0.90
2019-02-24T00:57:52.001Z,0.70
2019-02-24T01:00:21.099Z,0.50
2019-02-24T01:02:49.893Z,0.30
2019-02-24T01:05:19.290Z,0.10
2019-02-24T01:07:48.067Z,-0.10
2019-02-24T01:10:16.877Z,-0.30
2019-02-24T01:12:45.724Z,-0.40
2019-02-24T01:15:14.505Z,-0.50
2019-02-24T01:20:12.083Z,-0.70
2019-02-24T01:22:40.892Z,-0.80
2019-02-24T01:25:09.871Z,-0.80
2019-02-24T01:27:39.407Z,-0.90
2019-02-24T01:30:09.182Z,-1.00
2019-02-24T01:32:38.285Z,-1.20
2019-02-24T01:35:07.707Z,-1.30
2019-02-24T01:37:37.120Z,-1.40
2019-02-24T01:40:06.298Z,-1.50
2019-02-24T01:42:35.280Z,-1.50
2019-02-24T01:45:04.484Z,-1.60
2019-02-24T01:47:33.275Z,-1.60
2019-02-24T01:50:02.341Z,-1.70
2019-02-24T01:52:31.440Z,-1.80
2019-02-24T01:55:00.311Z,-1.90
2019-02-24T01:57:29.162Z,-1.90
2019-02-24T01:59:58.124Z,-2.00
2019-02-24T02:02:27.017Z,-2.00
2019-02-24T02:04:55.833Z,-2.10
2019-02-24T02:07:24.677Z,-2.10
2019-02-24T02:09:53.463Z,-2.20
2019-02-24T02:12:22.251Z,-2.20
2019-02-24T02:14:51.425Z,-2.20
2019-02-24T02:17:20.406Z,-2.30
2019-02-24T02:19:49.185Z,-2.30
2019-02-24T02:22:18.617Z,-2.30
2019-02-24T02:24:47.473Z,-2.30
2019-02-24T02:27:16.243Z,-2.30
2019-02-24T02:29:45.098Z,-2.40
2019-02-24T02:32:14.204Z,-2.40
2019-02-24T02:34:43.043Z,-2.50
2019-02-24T02:37:12.086Z,-2.50
2019-02-24T02:39:40.870Z,-2.50
2019-02-24T02:42:10.437Z,-2.60
2019-02-24T02:44:39.221Z,-2.60
2019-02-24T02:47:07.997Z,-2.60
2019-02-24T02:49:37.016Z,-2.70
2019-02-24T02:52:06.115Z,-2.70
2019-02-24T02:54:35.133Z,-2.70
2019-02-24T02:57:03.970Z,-2.80
2019-02-24T02:59:32.755Z,-2.80
2019-02-24T03:02:01.545Z,-2.90
2019-02-24T03:04:30.405Z,-2.90
2019-02-24T03:07:16.433Z,-2.90
2019-02-24T03:09:45.540Z,-2.90
2019-02-24T03:12:14.920Z,-3.00
2019-02-24T03:14:44.041Z,-3.00
2019-02-24T03:17:13.100Z,-3.00
2019-02-24T03:19:41.869Z,-3.00
2019-02-24T03:22:10.917Z,-2.90
2019-02-24T03:24:39.706Z,-3.00
2019-02-24T03:27:08.839Z,-2.90
2019-02-24T03:29:37.879Z,-2.90
2019-02-24T03:32:06.661Z,-3.00
2019-02-24T03:34:35.428Z,-3.00
2019-02-24T03:37:04.436Z,-3.10
2019-02-24T03:39:33.317Z,-3.10
2019-02-24T03:42:02.170Z,-3.10
2019-02-24T03:44:30.940Z,-3.10
2019-02-24T03:46:59.789Z,-3.10
2019-02-24T03:49:28.574Z,-3.20
2019-02-24T03:51:57.433Z,-3.20
2019-02-24T03:54:26.388Z,-3.30
2019-02-24T03:56:55.249Z,-3.30
2019-02-24T03:59:24.337Z,-3.30
2019-02-24T04:01:53.614Z,-3.30
2019-02-24T04:04:22.474Z,-3.40
2019-02-24T04:06:51.341Z,-3.40
2019-02-24T04:09:20.194Z,-3.40
2019-02-24T04:11:49.080Z,-3.50
2019-02-24T04:14:18.517Z,-3.50
2019-02-24T04:16:47.364Z,-3.40
2019-02-24T04:19:16.224Z,-3.40
2019-02-24T04:21:45.347Z,-3.50
2019-02-24T04:24:14.645Z,-3.50
2019-02-24T04:26:43.706Z,-3.50
2019-02-24T04:29:12.608Z,-3.50
2019-02-24T04:31:41.640Z,-3.50
2019-02-24T04:34:10.420Z,-3.50
2019-02-24T04:36:39.172Z,-3.50
2019-02-24T04:39:08.203Z,-3.50
2019-02-24T04:41:36.961Z,-3.60
2019-02-24T04:44:05.752Z,-3.60
2019-02-24T04:46:34.526Z,-3.60
2019-02-24T04:49:03.292Z,-3.60
2019-02-24T04:51:32.066Z,-3.60
2019-02-24T04:54:01.072Z,-3.60
2019-02-24T04:56:29.857Z,-3.60
2019-02-24T04:58:58.887Z,-3.50
2019-02-24T05:01:27.693Z,-3.50
2019-02-24T05:03:56.704Z,-3.60
2019-02-24T05:06:25.497Z,-3.60
2019-02-24T05:08:54.333Z,-3.60
2019-02-24T05:11:23.106Z,-3.70
2019-02-24T05:13:51.900Z,-3.70
2019-02-24T05:16:20.828Z,-3.70
2019-02-24T05:18:49.602Z,-3.70
2019-02-24T05:21:18.673Z,-3.80
2019-02-24T05:23:47.444Z,-3.80
2019-02-24T05:26:16.497Z,-3.90
2019-02-24T05:28:45.641Z,-3.90
2019-02-24T05:31:14.440Z,-4.00
2019-02-24T05:33:43.212Z,-4.00
2019-02-24T05:36:12.287Z,-4.10
2019-02-24T05:38:41.152Z,-4.10
2019-02-24T05:41:10.080Z,-4.20
2019-02-24T05:43:38.874Z,-4.20
2019-02-24T05:46:07.961Z,-4.20
2019-02-24T05:48:36.769Z,-4.30
2019-02-24T05:51:05.770Z,-4.30
2019-02-24T05:53:34.632Z,-4.40
2019-02-24T05:56:03.612Z,-4.40
2019-02-24T05:58:32.811Z,-4.40
2019-02-24T06:01:01.809Z,-4.40
2019-02-24T06:03:30.575Z,-4.50
2019-02-24T06:05:59.362Z,-4.50
2019-02-24T06:08:28.435Z,-4.60
2019-02-24T06:10:57.360Z,-4.60
2019-02-24T06:13:26.448Z,-4.70
2019-02-24T06:15:55.222Z,-4.70
2019-02-24T06:18:24.297Z,-4.70
2019-02-24T06:20:53.068Z,-4.80
2019-02-24T06:23:21.888Z,-4.70
2019-02-24T06:25:50.740Z,-4.70
2019-02-24T06:28:19.585Z,-4.60
2019-02-24T06:30:48.444Z,-4.60
2019-02-24T06:33:17.513Z,-4.60
2019-02-24T06:35:46.558Z,-4.50
2019-02-24T06:38:15.636Z,-4.40
2019-02-24T06:40:45.042Z,-4.40
2019-02-24T06:43:14.145Z,-4.30
2019-02-24T06:45:42.911Z,-4.30
2019-02-24T06:48:11.695Z,-4.20
2019-02-24T06:50:55.921Z,-4.10
2019-02-24T06:53:25.022Z,-4.10
2019-02-24T06:55:53.919Z,-4.00
2019-02-24T06:58:22.753Z,-3.90
2019-02-24T07:00:51.638Z,-3.80
2019-02-24T07:03:20.709Z,-3.70
2019-02-24T07:05:49.896Z,-3.70
2019-02-24T07:08:18.672Z,-3.50
2019-02-24T07:10:47.481Z,-3.40
2019-02-24T07:13:16.337Z,-3.20
2019-02-24T07:15:45.128Z,-3.10
2019-02-24T07:18:14.160Z,-2.90
2019-02-24T07:20:43.328Z,-2.80
2019-02-24T07:23:12.209Z,-2.60
2019-02-24T07:25:41.270Z,-2.40
2019-02-24T07:28:10.106Z,-2.30
2019-02-24T07:30:38.894Z,-2.10
2019-02-24T07:33:07.945Z,-1.90
2019-02-24T07:35:36.825Z,-1.60
2019-02-24T07:38:05.743Z,-1.40
2019-02-24T07:40:34.536Z,-1.10
2019-02-24T07:43:03.324Z,-0.90
2019-02-24T07:45:32.648Z,-0.70
2019-02-24T07:48:02.168Z,-0.50
2019-02-24T07:50:30.969Z,-0.30
2019-02-24T07:52:59.752Z,-0.10
2019-02-24T07:55:28.594Z,0.10
2019-02-24T07:57:57.672Z,0.30
2019-02-24T08:00:32.304Z,0.50
2019-02-24T08:02:57.121Z,0.70
2019-02-24T08:05:26.182Z,1.00
2019-02-24T08:07:55.316Z,1.20
2019-02-24T08:10:24.270Z,1.50
2019-02-24T08:12:53.364Z,1.70
2019-02-24T08:15:22.538Z,1.90
2019-02-24T08:17:51.402Z,2.10
2019-02-24T08:20:20.189Z,2.40
2019-02-24T08:22:49.017Z,2.60
2019-02-24T08:25:18.149Z,2.80
2019-02-24T08:27:47.421Z,3.00
2019-02-24T08:30:16.614Z,3.20
2019-02-24T08:32:45.385Z,3.50
2019-02-24T08:35:14.676Z,3.70
2019-02-24T08:37:43.471Z,4.00
2019-02-24T08:40:12.321Z,4.30
2019-02-24T08:42:41.188Z,4.50
2019-02-24T08:45:10.026Z,4.80
2019-02-24T08:47:39.229Z,5.00
2019-02-24T08:50:08.836Z,5.20
2019-02-24T08:52:37.600Z,5.50
2019-02-24T08:55:06.716Z,5.80
2019-02-24T08:57:35.524Z,6.00
2019-02-24T09:00:05.009Z,6.20
2019-02-24T09:02:33.969Z,6.40
2019-02-24T09:05:02.979Z,6.50
2019-02-24T09:07:32.464Z,6.70
2019-02-24T09:10:01.373Z,7.00
2019-02-24T09:12:30.270Z,7.20
2019-02-24T09:14:59.396Z,7.30
2019-02-24T09:17:28.264Z,7.60
2019-02-24T09:19:57.569Z,7.90
2019-02-24T09:22:26.481Z,8.10
2019-02-24T09:24:55.953Z,8.30
2019-02-24T09:27:24.813Z,8.40
2019-02-24T09:29:53.931Z,8.60
2019-02-24T09:32:22.794Z,8.80
2019-02-24T09:34:51.588Z,9.10
2019-02-24T09:37:20.702Z,9.20
2019-02-24T09:39:49.488Z,9.30
2019-02-24T09:42:18.440Z,9.60
2019-02-24T09:44:47.285Z,9.80
2019-02-24T09:47:16.121Z,9.90
2019-02-24T09:49:44.901Z,10.20
2019-02-24T09:52:14.009Z,10.20
2019-02-24T09:54:42.912Z,10.40
2019-02-24T09:57:11.745Z,10.70
2019-02-24T09:59:40.611Z,10.80
2019-02-24T10:02:09.493Z,11.00
2019-02-24T10:04:38.372Z,11.20
2019-02-24T10:07:07.237Z,11.60
2019-02-24T10:09:36.674Z,11.90
2019-02-24T10:12:05.684Z,12.00
2019-02-24T10:14:34.825Z,12.10
2019-02-24T10:17:04.092Z,12.30
2019-02-24T10:19:32.966Z,12.50
2019-02-24T10:22:01.842Z,12.80
2019-02-24T10:24:30.759Z,13.00
2019-02-24T10:26:59.884Z,13.20
2019-02-24T10:29:28.862Z,13.30
2019-02-24T10:31:57.655Z,13.30
2019-02-24T10:34:26.660Z,13.40
2019-02-24T10:36:55.763Z,13.50
2019-02-24T10:39:29.665Z,13.50
2019-02-24T10:41:55.101Z,13.60
2019-02-24T10:44:24.021Z,13.70
2019-02-24T10:46:53.029Z,13.90
2019-02-24T10:49:21.879Z,13.90
2019-02-24T10:51:51.710Z,13.90
2019-02-24T10:54:20.628Z,14.10
2019-02-24T10:56:49.819Z,14.10
2019-02-24T10:59:18.932Z,14.20
2019-02-24T11:01:47.789Z,14.30
2019-02-24T11:04:17.200Z,14.40
2019-02-24T11:06:46.245Z,14.60
2019-02-24T11:09:15.128Z,14.80
2019-02-24T11:11:44.310Z,14.90
2019-02-24T11:14:13.316Z,15.00
2019-02-24T11:16:42.472Z,15.20
2019-02-24T11:19:11.641Z,15.50
2019-02-24T11:21:40.626Z,15.70
2019-02-24T11:24:09.704Z,15.90
2019-02-24T11:26:38.550Z,16.00
2019-02-24T11:29:07.857Z,16.10
2019-02-24T11:31:38.581Z,16.20
2019-02-24T11:34:07.684Z,16.30
2019-02-24T11:36:36.555Z,16.50
2019-02-24T11:39:05.979Z,16.70
2019-02-24T11:41:34.878Z,17.00
2019-02-24T11:44:03.854Z,17.30
2019-02-24T11:46:32.936Z,17.70
2019-02-24T11:49:01.803Z,17.90
2019-02-24T11:51:30.997Z,18.20
2019-02-24T11:54:00.461Z,18.10
2019-02-24T11:56:29.619Z,18.10
2019-02-24T11:58:58.503Z,18.20
2019-02-24T12:01:27.403Z,18.30
2019-02-24T12:03:56.236Z,18.30
2019-02-24T12:06:25.157Z,18.40
2019-02-24T12:08:53.975Z,18.60
2019-02-24T12:11:22.862Z,18.60
2019-02-24T12:13:51.873Z,18.80
2019-02-24T12:16:20.673Z,19.00
2019-02-24T12:18:49.493Z,19.10
2019-02-24T12:21:18.533Z,19.30
2019-02-24T12:23:47.385Z,19.50
2019-02-24T12:26:16.272Z,19.60
2019-02-24T12:28:45.473Z,19.70
2019-02-24T12:31:14.493Z,19.60
2019-02-24T12:33:43.309Z,19.70
2019-02-24T12:36:12.517Z,19.80
2019-02-24T12:38:41.667Z,20.00
2019-02-24T12:41:10.469Z,20.00
2019-02-24T12:43:39.566Z,20.00
2019-02-24T12:46:08.489Z,19.80
2019-02-24T12:48:37.265Z,19.60
2019-02-24T12:51:06.148Z,19.60
2019-02-24T12:53:34.957Z,19.60
2019-02-24T12:56:03.780Z,19.30
2019-02-24T12:58:32.821Z,19.00
2019-02-24T13:01:01.786Z,18.90
2019-02-24T13:03:30.713Z,18.90
2019-02-24T13:05:59.520Z,18.60
2019-02-24T13:08:28.917Z,18.40
2019-02-24T13:10:57.832Z,18.20
2019-02-24T13:13:27.526Z,18.20
2019-02-24T13:15:56.376Z,18.30
2019-02-24T13:18:25.396Z,18.30
2019-02-24T13:20:54.531Z,18.30
2019-02-24T13:23:23.646Z,18.30
2019-02-24T13:25:52.642Z,18.30
2019-02-24T13:28:21.678Z,18.00
2019-02-24T13:30:50.597Z,17.80
2019-02-24T13:33:19.429Z,17.70
2019-02-24T13:35:48.249Z,17.60
2019-02-24T13:38:17.115Z,17.50
2019-02-24T13:40:45.996Z,17.20
2019-02-24T13:43:16.657Z,16.80
2019-02-24T13:45:45.796Z,16.60
2019-02-24T13:48:15.045Z,16.30
2019-02-24T13:50:44.146Z,16.10
2019-02-24T13:53:12.978Z,16.00
2019-02-24T13:55:41.912Z,15.70
2019-02-24T13:58:10.764Z,15.60
2019-02-24T14:00:40.677Z,15.50
2019-02-24T14:03:09.539Z,15.40
2019-02-24T14:05:42.234Z,15.30
2019-02-24T14:08:11.301Z,15.20
2019-02-24T14:10:40.242Z,15.10
2019-02-24T14:13:09.028Z,15.10
2019-02-24T14:15:38.051Z,15.00
2019-02-24T14:18:06.856Z,14.90
2019-02-24T14:20:35.722Z,14.90
2019-02-24T14:23:04.884Z,14.80
2019-02-24T14:25:33.690Z,14.80
2019-02-24T14:28:02.761Z,14.70
2019-02-24T14:30:31.817Z,14.70
2019-02-24T14:33:00.900Z,14.70
2019-02-24T14:35:29.733Z,14.70
2019-02-24T14:37:58.645Z,14.70
2019-02-24T14:40:27.460Z,14.60
2019-02-24T14:42:56.377Z,14.60
2019-02-24T14:45:25.643Z,14.50
2019-02-24T14:47:54.621Z,14.50
2019-02-24T14:50:23.574Z,14.40
2019-02-24T14:52:52.510Z,14.40
2019-02-24T14:55:21.324Z,14.40
2019-02-24T14:57:50.112Z,14.40
2019-02-24T15:00:19.150Z,14.50
2019-02-24T15:02:48.380Z,14.50
2019-02-24T15:05:17.339Z,14.50
2019-02-24T15:07:46.328Z,14.50
2019-02-24T15:10:15.778Z,14.50
2019-02-24T15:12:44.853Z,14.50
2019-02-24T15:15:15.833Z,14.40
2019-02-24T15:17:44.608Z,14.40
2019-02-24T15:20:15.775Z,14.40
2019-02-24T15:22:44.704Z,14.30
2019-02-24T15:25:14.217Z,14.30
2019-02-24T15:27:43.321Z,14.20
2019-02-24T15:30:18.440Z,14.20
2019-02-24T15:32:51.700Z,14.20
2019-02-24T15:35:18.699Z,14.20
2019-02-24T15:37:47.606Z,14.10
2019-02-24T15:40:16.390Z,14.00
2019-02-24T15:42:45.296Z,14.00
2019-02-24T15:45:14.221Z,13.80
2019-02-24T15:47:43.457Z,13.60
2019-02-24T15:50:12.784Z,13.40
2019-02-24T15:52:43.631Z,13.30
2019-02-24T15:55:12.568Z,13.10
2019-02-24T15:57:41.573Z,13.00
2019-02-24T16:00:12.488Z,12.80
2019-02-24T16:02:41.599Z,12.80
2019-02-24T16:05:10.829Z,12.70
2019-02-24T16:07:39.926Z,12.70
2019-02-24T16:10:11.182Z,12.60
2019-02-24T16:12:42.251Z,12.60
2019-02-24T16:15:12.844Z,12.50
2019-02-24T16:17:43.294Z,12.30
2019-02-24T16:20:14.776Z,12.10
2019-02-24T16:22:44.094Z,11.90
2019-02-24T16:25:13.375Z,11.80
2019-02-24T16:27:42.549Z,11.60
2019-02-24T16:30:12.222Z,11.40
2019-02-24T16:32:41.264Z,11.20
2019-02-24T16:35:11.330Z,11.00
2019-02-24T16:37:43.645Z,10.80
2019-02-24T16:40:14.788Z,10.60
2019-02-24T16:42:43.654Z,10.50
2019-02-24T16:45:13.205Z,10.30
2019-02-24T16:47:42.330Z,10.20
2019-02-24T16:50:12.839Z,10.20
2019-02-24T16:52:43.480Z,10.20
2019-02-24T16:55:13.466Z,10.00
2019-02-24T16:57:42.420Z,9.70
2019-02-24T17:00:14.830Z,9.50
2019-02-24T17:02:43.695Z,9.30
2019-02-24T17:05:13.503Z,9.10
2019-02-24T17:07:42.291Z,8.90
2019-02-24T17:10:12.310Z,8.80
2019-02-24T17:12:45.109Z,8.70
2019-02-24T17:15:14.108Z,8.60
2019-02-24T17:17:42.944Z,8.40
2019-02-24T17:20:13.145Z,8.30
2019-02-24T17:22:43.044Z,8.20
2019-02-24T17:25:12.036Z,8.20
2019-02-24T17:27:41.392Z,8.10
2019-02-24T17:30:11.261Z,8.10
2019-02-24T17:32:41.629Z,8.10
2019-02-24T17:35:10.934Z,8.00
2019-02-24T17:37:42.305Z,8.10
2019-02-24T17:40:12.196Z,8.10
2019-02-24T17:42:43.509Z,8.20
2019-02-24T17:45:12.803Z,8.30
2019-02-24T17:47:44.978Z,8.40
2019-02-24T17:50:13.974Z,8.40
2019-02-24T17:52:42.935Z,8.40
2019-02-24T17:55:12.476Z,8.40
2019-02-24T17:57:41.343Z,8.40
2019-02-24T18:00:14.153Z,8.50
2019-02-24T18:02:43.156Z,8.50
2019-02-24T18:05:12.337Z,8.50
2019-02-24T18:07:41.304Z,8.50
2019-02-24T18:10:10.414Z,8.30
2019-02-24T18:12:39.508Z,8.20
2019-02-24T18:15:09.679Z,8.00
2019-02-24T18:17:38.598Z,7.90
2019-02-24T18:20:08.688Z,7.80
2019-02-24T18:22:37.489Z,7.80
2019-02-24T18:25:07.709Z,7.80
2019-02-24T18:27:36.733Z,7.70
2019-02-24T18:30:07.881Z,7.50
2019-02-24T18:32:36.636Z,7.40
2019-02-24T18:35:05.728Z,7.30
2019-02-24T18:37:34.636Z,7.10
2019-02-24T18:40:03.634Z,7.00
2019-02-24T18:42:32.454Z,6.80
2019-02-24T18:45:01.308Z,6.60
2019-02-24T18:47:30.180Z,6.50
2019-02-24T18:49:59.056Z,6.40
2019-02-24T18:52:27.912Z,6.40
2019-02-24T18:54:56.789Z,6.30
2019-02-24T18:57:26.050Z,6.20
2019-02-24T18:59:54.928Z,6.10
2019-02-24T19:02:23.709Z,5.90
2019-02-24T19:04:52.666Z,5.80
2019-02-24T19:07:21.504Z,5.70
2019-02-24T19:09:50.346Z,5.60
2019-02-24T19:12:19.450Z,5.50
2019-02-24T19:14:48.455Z,5.40
2019-02-24T19:17:17.337Z,5.30
2019-02-24T19:19:46.236Z,5.30
2019-02-24T19:22:15.192Z,5.20
2019-02-24T19:24:44.112Z,5.10
2019-02-24T19:27:12.960Z,5.00
2019-02-24T19:29:41.918Z,5.00
2019-02-24T19:32:10.829Z,4.90
2019-02-24T19:34:39.976Z,4.80
2019-02-24T19:37:08.868Z,4.70
2019-02-24T19:39:37.950Z,4.60
2019-02-24T19:42:06.861Z,4.50
2019-02-24T19:44:35.784Z,4.50
2019-02-24T19:47:04.707Z,4.50
2019-02-24T19:49:33.516Z,4.40
2019-02-24T19:52:02.407Z,4.40
2019-02-24T19:54:31.607Z,4.40
2019-02-24T19:57:00.512Z,4.30
2019-02-24T19:59:29.369Z,4.40
2019-02-24T20:01:58.178Z,4.30
2019-02-24T20:04:27.183Z,4.40
2019-02-24T20:06:56.108Z,4.40
2019-02-24T20:09:24.895Z,4.40
2019-02-24T20:11:53.706Z,4.50
2019-02-24T20:14:22.485Z,4.50
2019-02-24T20:16:51.522Z,4.40
2019-02-24T20:19:20.677Z,4.20
2019-02-24T20:21:49.524Z,4.00
2019-02-24T20:24:18.437Z,3.80
2019-02-24T20:26:47.379Z,3.70
2019-02-24T20:29:16.184Z,3.50
2019-02-24T20:31:44.999Z,3.40
2019-02-24T20:34:13.848Z,3.40
2019-02-24T20:36:42.661Z,3.40
2019-02-24T20:39:12.316Z,3.40
2019-02-24T20:41:41.195Z,3.30
2019-02-24T20:44:10.030Z,3.20
2019-02-24T20:46:38.965Z,3.00
2019-02-24T20:49:07.918Z,3.00
2019-02-24T20:51:36.804Z,2.90
2019-02-24T20:54:06.050Z,2.80
2019-02-24T20:56:35.304Z,2.80
2019-02-24T20:59:04.270Z,2.70
2019-02-24T21:01:33.065Z,2.60
2019-02-24T21:04:01.864Z,2.60
2019-02-24T21:06:30.999Z,2.50
2019-02-24T21:08:59.803Z,2.40
2019-02-24T21:11:28.816Z,2.30
2019-02-24T21:13:57.724Z,2.20
2019-02-24T21:16:26.580Z,2.00
2019-02-24T21:18:55.412Z,1.80
2019-02-24T21:21:24.231Z,1.70
2019-02-24T21:23:53.394Z,1.60
2019-02-24T21:26:22.187Z,1.50
2019-02-24T21:28:51.000Z,1.40
2019-02-24T21:31:20.033Z,1.30
2019-02-24T21:33:48.824Z,1.20
2019-02-24T21:36:17.973Z,1.10
2019-02-24T21:38:47.470Z,1.00
2019-02-24T21:41:16.244Z,0.90
2019-02-24T21:43:45.063Z,0.90
2019-02-24T21:46:13.845Z,0.80
2019-02-24T21:48:42.630Z,0.80
2019-02-24T21:51:11.493Z,0.70
2019-02-24T21:53:40.296Z,0.50
2019-02-24T21:56:09.149Z,0.50
2019-02-24T21:58:38.164Z,0.40
2019-02-24T22:01:07.365Z,0.40
2019-02-24T22:03:36.372Z,0.40
2019-02-24T22:06:05.322Z,0.40
2019-02-24T22:08:34.105Z,0.40
2019-02-24T22:11:02.919Z,0.30
2019-02-24T22:13:31.813Z,0.30
2019-02-24T22:16:00.861Z,0.30
2019-02-24T22:18:29.938Z,0.20
2019-02-24T22:20:58.781Z,0.10
2019-02-24T22:23:27.570Z,0.10
2019-02-24T22:25:57.266Z,0.00
2019-02-24T22:28:26.045Z,0.00
2019-02-24T22:30:54.836Z,-0.10
2019-02-24T22:33:23.639Z,-0.20
2019-02-24T22:35:52.840Z,-0.20
2019-02-24T22:38:21.817Z,-0.20
2019-02-24T22:40:54.418Z,-0.30
2019-02-24T22:43:21.453Z,-0.30
2019-02-24T22:45:50.231Z,-0.40
2019-02-24T22:48:19.011Z,-0.40
2019-02-24T22:50:47.884Z,-0.40
2019-02-24T22:53:16.750Z,-0.40
2019-02-24T22:55:45.594Z,-0.40
2019-02-24T22:58:14.374Z,-0.40
2019-02-24T23:00:59.069Z,-0.40
2019-02-24T23:03:30.611Z,-0.40
2019-02-24T23:05:59.547Z,-0.40
2019-02-24T23:08:28.400Z,-0.40
2019-02-24T23:10:57.198Z,-0.50
2019-02-24T23:13:26.430Z,-0.50
2019-02-24T23:15:55.529Z,-0.50
2019-02-24T23:18:24.920Z,-0.60
2019-02-24T23:20:54.016Z,-0.60
2019-02-24T23:23:22.877Z,-0.60
2019-02-24T23:25:51.745Z,-0.60
2019-02-24T23:28:20.637Z,-0.60
2019-02-24T23:30:49.424Z,-0.60
2019-02-24T23:33:18.556Z,-0.70
2019-02-24T23:35:47.706Z,-0.70
2019-02-24T23:38:16.548Z,-0.70
2019-02-24T23:40:45.433Z,-0.70
2019-02-24T23:43:14.228Z,-0.70
2019-02-24T23:45:43.116Z,-0.70
2019-02-24T23:48:11.977Z,-0.80
2019-02-24T23:50:41.088Z,-0.80
2019-02-24T23:53:10.150Z,-0.80
2019-02-24T23:55:38.917Z,-0.80
2019-02-24T23:58:07.785Z,-0.80
